Time;durP1;ratioP1;P1;durP2;ratioP2;P2;SDS_P1;SDS_P2;PMS_P1;PMS_P2;Temp;Humidity;BMP_temperature;BMP_pressure;BME280_temperature;BME280_humidity;BME280_pressure;Samples;Min_cycle;Max_cycle;Signal;HPM_P1;HPM_P2
2021/04/05 00:00:26;;;;;;;40.17;8.60;;;7.10;99.90;;;;;;2097431;28;20094;-62
2021/04/05 00:01:27;;;;;;;42.10;9.32;;;7.10;99.90;;;;;;2110841;28;20105;-62
2021/04/05 00:02:27;;;;;;;44.67;8.55;;;7.10;99.90;;;;;;2102666;28;20123;-62
2021/04/05 00:03:28;;;;;;;41.47;8.35;;;7.10;99.90;;;;;;2103944;28;20048;-62
2021/04/05 00:04:29;;;;;;;26.63;7.10;;;7.10;99.90;;;;;;2111213;28;20133;-62
2021/04/05 00:05:37;;;;;;;34.25;7.88;;;7.10;99.90;;;;;;2110395;28;20015;-62
2021/04/05 00:06:38;;;;;;;35.13;7.97;;;7.20;99.90;;;;;;2102291;28;20016;-62
2021/04/05 00:07:44;;;;;;;28.75;7.35;;;7.20;99.90;;;;;;2103341;28;20368;-62
2021/04/05 00:08:45;;;;;;;28.63;7.70;;;7.20;99.90;;;;;;2111080;28;20028;-62
2021/04/05 00:09:46;;;;;;;35.95;7.40;;;7.20;99.90;;;;;;2097810;28;20017;-62
2021/04/05 00:10:54;;;;;;;39.90;7.25;;;7.20;99.90;;;;;;2094676;28;20075;-61
2021/04/05 00:11:56;;;;;;;32.10;7.25;;;7.20;99.90;;;;;;2103267;28;20020;-63
2021/04/05 00:12:59;;;;;;;46.80;8.07;;;7.20;99.90;;;;;;2097201;28;20548;-62
2021/04/05 00:14:00;;;;;;;31.77;7.55;;;7.10;99.90;;;;;;2097322;28;20029;-62
2021/04/05 00:15:01;;;;;;;30.33;7.82;;;7.10;99.90;;;;;;2096940;28;20020;-62
2021/04/05 00:16:03;;;;;;;32.63;7.88;;;7.00;99.90;;;;;;2094777;28;20634;-62
2021/04/05 00:17:04;;;;;;;31.85;7.68;;;7.00;99.90;;;;;;2089604;28;20817;-62
2021/04/05 00:18:05;;;;;;;40.08;7.90;;;7.00;99.90;;;;;;2096049;28;20778;-62
2021/04/05 00:19:06;;;;;;;47.08;7.70;;;6.90;99.90;;;;;;2111430;28;20031;-64
2021/04/05 00:20:21;;;;;;;33.95;7.45;;;6.90;99.90;;;;;;2100665;28;20012;-61
2021/04/05 00:21:24;;;;;;;36.72;8.43;;;6.90;99.90;;;;;;2095302;28;20047;-62
2021/04/05 00:22:25;;;;;;;40.40;7.90;;;6.90;99.90;;;;;;2095812;28;20017;-63
2021/04/05 00:23:26;;;;;;;42.58;8.95;;;6.90;99.90;;;;;;2095916;28;20049;-62
2021/04/05 00:24:27;;;;;;;38.88;8.90;;;6.90;99.90;;;;;;2096280;28;20760;-62
2021/04/05 00:25:28;;;;;;;40.58;8.27;;;6.90;99.90;;;;;;2096109;28;20718;-62
2021/04/05 00:26:28;;;;;;;48.63;8.50;;;6.90;99.90;;;;;;2097011;28;20020;-61
2021/04/05 00:27:29;;;;;;;45.47;8.15;;;6.90;99.90;;;;;;2095916;28;20021;-61
2021/04/05 00:28:30;;;;;;;38.42;7.82;;;6.90;99.90;;;;;;2095659;28;20039;-61
2021/04/05 00:29:30;;;;;;;47.53;9.30;;;6.90;99.90;;;;;;2096053;28;20373;-62
2021/04/05 00:30:34;;;;;;;35.65;8.15;;;6.90;99.90;;;;;;2096241;28;20017;-61
2021/04/05 00:31:34;;;;;;;39.38;8.45;;;6.90;99.90;;;;;;2096826;28;20020;-62
2021/04/05 00:32:35;;;;;;;35.88;6.88;;;6.90;99.90;;;;;;2102479;28;20047;-62
2021/04/05 00:33:36;;;;;;;41.58;8.55;;;6.80;99.90;;;;;;2101846;28;20085;-61
2021/04/05 00:34:37;;;;;;;37.35;7.32;;;6.80;99.90;;;;;;2096575;28;20016;-62
2021/04/05 00:35:39;;;;;;;40.63;7.63;;;6.80;99.90;;;;;;2096578;28;20009;-61
2021/04/05 00:36:40;;;;;;;42.80;8.90;;;6.80;99.90;;;;;;2095515;28;20020;-62
2021/04/05 00:37:41;;;;;;;40.42;8.48;;;6.90;99.90;;;;;;2100189;28;20537;-62
2021/04/05 00:38:41;;;;;;;32.05;8.23;;;6.90;99.90;;;;;;2095457;28;20495;-62
2021/04/05 00:39:42;;;;;;;33.30;7.47;;;7.00;99.90;;;;;;2095873;28;20028;-62
2021/04/05 00:40:59;;;;;;;46.22;7.60;;;7.00;99.90;;;;;;2095137;28;20516;-62
2021/04/05 00:42:00;;;;;;;42.83;8.57;;;7.00;99.90;;;;;;2094080;28;20025;-62
2021/04/05 00:43:02;;;;;;;37.55;7.70;;;7.10;99.90;;;;;;2095058;28;20054;-62
2021/04/05 00:44:03;;;;;;;38.78;7.88;;;7.20;99.90;;;;;;2094614;28;20027;-62
2021/04/05 00:45:09;;;;;;;31.88;6.95;;;7.20;99.90;;;;;;2093739;28;20036;-61
2021/04/05 00:46:12;;;;;;;37.47;7.97;;;7.20;99.90;;;;;;2095306;28;20074;-61
2021/04/05 00:47:14;;;;;;;47.80;8.48;;;7.20;99.90;;;;;;2093339;28;20092;-62
2021/04/05 00:48:17;;;;;;;33.25;8.40;;;7.20;99.90;;;;;;2087832;28;20021;-62
2021/04/05 00:49:18;;;;;;;46.95;8.20;;;7.30;99.90;;;;;;2087219;28;20021;-62
2021/04/05 00:50:45;;;;;;;38.47;9.68;;;7.30;99.90;;;;;;2087726;28;20021;-62
2021/04/05 00:51:46;;;;;;;38.70;7.05;;;7.30;99.90;;;;;;2095788;28;20016;-62
2021/04/05 00:52:52;;;;;;;36.60;7.80;;;7.40;99.90;;;;;;2095658;28;20020;-62
2021/04/05 00:53:53;;;;;;;39.65;7.90;;;7.40;99.90;;;;;;2095081;28;20703;-62
2021/04/05 00:54:54;;;;;;;36.53;6.82;;;7.40;99.90;;;;;;2086878;28;20025;-62
2021/04/05 00:55:58;;;;;;;32.42;7.47;;;7.40;99.90;;;;;;2092975;28;20064;-62
2021/04/05 00:56:59;;;;;;;40.60;7.45;;;7.50;99.90;;;;;;2095067;28;20020;-62
2021/04/05 00:58:01;;;;;;;33.00;7.32;;;7.50;99.90;;;;;;2090402;28;20585;-62
2021/04/05 00:59:01;;;;;;;31.80;7.60;;;7.50;99.90;;;;;;2087336;28;20500;-62
2021/04/05 01:00:31;;;;;;;37.28;6.97;;;7.60;99.90;;;;;;2087732;28;20275;-62
2021/04/05 01:01:33;;;;;;;28.95;7.60;;;7.60;99.90;;;;;;2082468;28;20059;-62
2021/04/05 01:02:35;;;;;;;38.47;7.97;;;7.70;99.90;;;;;;2091875;28;20443;-62
2021/04/05 01:03:39;;;;;;;37.45;7.53;;;7.70;99.90;;;;;;2094894;28;20025;-62
2021/04/05 01:04:39;;;;;;;35.35;7.53;;;7.70;99.90;;;;;;2087052;28;20029;-62
2021/04/05 01:05:41;;;;;;;29.55;6.63;;;7.80;99.90;;;;;;2098014;28;20073;-61
2021/04/05 01:06:42;;;;;;;35.63;7.95;;;7.80;99.90;;;;;;2094894;28;20044;-62
2021/04/05 01:07:43;;;;;;;28.75;6.97;;;7.90;99.90;;;;;;2089574;28;20029;-62
2021/04/05 01:08:43;;;;;;;35.40;7.90;;;7.90;99.90;;;;;;2093898;28;20448;-61
2021/04/05 01:09:45;;;;;;;33.83;7.57;;;7.90;99.90;;;;;;2094765;28;20036;-62
2021/04/05 01:10:46;;;;;;;;;;;8.00;99.90;;;;;;2095767;28;20068;-62
2021/04/05 01:11:47;;;;;;;33.22;6.55;;;8.00;99.90;;;;;;2087337;28;19946;-62
2021/04/05 01:12:47;;;;;;;36.50;7.28;;;8.00;99.90;;;;;;2086432;28;20560;-61
2021/04/05 01:13:49;;;;;;;39.25;7.60;;;8.00;99.90;;;;;;2087227;28;20673;-62
2021/04/05 01:14:50;;;;;;;32.08;8.07;;;8.00;99.90;;;;;;2086773;28;20029;-62
2021/04/05 01:15:51;;;;;;;34.58;6.80;;;8.10;99.90;;;;;;2087136;28;20049;-61
2021/04/05 01:16:51;;;;;;;34.35;7.45;;;8.10;99.90;;;;;;2087238;28;20099;-62
2021/04/05 01:17:52;;;;;;;30.38;7.38;;;8.10;99.90;;;;;;2088888;28;20040;-61
2021/04/05 01:18:54;;;;;;;40.75;7.93;;;8.10;99.90;;;;;;2101328;28;20051;-62
2021/04/05 01:19:55;;;;;;;38.40;8.48;;;8.10;99.90;;;;;;2094651;28;20024;-62
2021/04/05 01:20:56;;;;;;;34.35;7.68;;;8.10;99.90;;;;;;2099430;28;20074;-62
2021/04/05 01:21:57;;;;;;;33.75;7.40;;;8.10;99.90;;;;;;2099429;28;20025;-62
2021/04/05 01:22:59;;;;;;;35.33;7.82;;;8.20;99.90;;;;;;2095695;28;20024;-62
2021/04/05 01:24:00;;;;;;;;;;;8.10;99.90;;;;;;2102904;28;20030;-62
2021/04/05 01:25:01;;;;;;;34.25;7.40;;;8.20;99.90;;;;;;2101128;28;20391;-62
2021/04/05 01:26:03;;;;;;;24.13;6.55;;;8.20;99.90;;;;;;2103890;28;20073;-62
2021/04/05 01:27:04;;;;;;;41.88;7.95;;;8.20;99.90;;;;;;2095306;28;20026;-62
2021/04/05 01:28:07;;;;;;;36.35;7.65;;;8.20;99.90;;;;;;2095468;28;20020;-62
2021/04/05 01:29:08;;;;;;;32.22;7.03;;;8.20;99.90;;;;;;2095905;28;20016;-62
2021/04/05 01:30:50;;;;;;;34.28;7.90;;;8.30;99.90;;;;;;2094981;28;20013;-62
2021/04/05 01:31:44;;;;;;;38.65;7.50;;;8.30;99.90;;;;;;2093809;28;20063;-61
2021/04/05 01:32:44;;;;;;;42.22;8.55;;;8.30;99.90;;;;;;2095527;28;20092;-62
2021/04/05 01:33:45;;;;;;;40.05;7.57;;;8.30;99.90;;;;;;2095387;28;20094;-62
2021/04/05 01:34:46;;;;;;;29.77;7.65;;;8.30;99.90;;;;;;2090343;28;20052;-62
2021/04/05 01:35:54;;;;;;;31.65;7.03;;;8.30;99.90;;;;;;2079409;28;20024;-62
2021/04/05 01:37:02;;;;;;;32.00;7.30;;;8.30;99.90;;;;;;2080433;28;20041;-61
2021/04/05 01:38:05;;;;;;;29.98;7.85;;;8.30;99.90;;;;;;2078946;28;20083;-62
2021/04/05 01:39:05;;;;;;;26.95;6.57;;;8.40;99.90;;;;;;2083342;28;20017;-62
2021/04/05 01:40:07;;;;;;;36.42;7.70;;;8.40;99.90;;;;;;2086337;28;20032;-62
2021/04/05 01:41:35;;;;;;;33.67;7.25;;;8.40;99.90;;;;;;2078886;28;20018;-62
2021/04/05 01:42:36;;;;;;;39.13;7.82;;;8.40;99.90;;;;;;2083847;28;20025;-62
2021/04/05 01:43:37;;;;;;;40.95;7.35;;;8.40;99.90;;;;;;2086114;28;20617;-61
2021/04/05 01:44:39;;;;;;;44.10;9.07;;;8.50;99.90;;;;;;2085701;28;20021;-62
2021/04/05 01:45:41;;;;;;;41.75;7.25;;;8.50;99.90;;;;;;2082568;28;20100;-65
2021/04/05 01:46:42;;;;;;;42.53;7.28;;;8.50;99.90;;;;;;2088133;28;20045;-62
2021/04/05 01:47:43;;;;;;;38.80;8.00;;;8.50;99.90;;;;;;2094093;28;20654;-62
2021/04/05 01:48:44;;;;;;;32.03;8.57;;;8.50;99.90;;;;;;2081706;28;20033;-62
2021/04/05 01:49:45;;;;;;;37.08;7.93;;;8.50;99.90;;;;;;2081477;28;20044;-62
2021/04/05 01:50:46;;;;;;;35.17;6.95;;;8.50;99.90;;;;;;2082957;28;20021;-63
2021/04/05 01:51:46;;;;;;;35.75;7.78;;;8.50;99.90;;;;;;2087249;28;20079;-62
2021/04/05 01:52:47;;;;;;;33.75;7.97;;;8.50;99.90;;;;;;2085764;28;20017;-62
2021/04/05 01:53:50;;;;;;;39.42;7.45;;;8.50;99.90;;;;;;2085989;28;20516;-62
2021/04/05 01:54:50;;;;;;;38.08;8.43;;;8.60;99.90;;;;;;2086416;28;20028;-62
2021/04/05 01:55:52;;;;;;;47.97;9.68;;;8.50;99.90;;;;;;2085391;28;20045;-62
2021/04/05 01:56:52;;;;;;;44.00;9.47;;;8.50;99.90;;;;;;2079432;28;20030;-62
2021/04/05 01:57:53;;;;;;;33.95;8.65;;;8.50;99.90;;;;;;2089141;28;20270;-62
2021/04/05 01:58:55;;;;;;;37.08;8.80;;;8.60;99.90;;;;;;2086625;28;20487;-62
2021/04/05 01:59:55;;;;;;;39.35;9.85;;;8.60;99.90;;;;;;2093933;28;20024;-62
2021/04/05 02:00:57;;;;;;;45.20;9.15;;;8.60;99.90;;;;;;2094114;28;20094;-62
2021/04/05 02:01:58;;;;;;;40.10;8.88;;;8.60;99.90;;;;;;2078820;28;20024;-62
2021/04/05 02:03:05;;;;;;;41.88;9.55;;;8.60;99.90;;;;;;2084575;28;20021;-62
2021/04/05 02:04:06;;;;;;;38.65;8.75;;;8.60;99.90;;;;;;2084455;28;20796;-62
2021/04/05 02:05:09;;;;;;;37.70;9.50;;;8.60;99.90;;;;;;2080805;28;20018;-62
2021/04/05 02:06:13;;;;;;;39.63;8.38;;;8.50;99.90;;;;;;2094350;28;20026;-63
2021/04/05 02:07:14;;;;;;;36.97;8.82;;;8.50;99.90;;;;;;2093919;28;20039;-63
2021/04/05 02:08:18;;;;;;;40.47;8.50;;;8.50;99.90;;;;;;2087626;28;20554;-62
2021/04/05 02:09:18;;;;;;;45.88;10.18;;;8.50;99.90;;;;;;2084652;28;20428;-63
2021/04/05 02:10:24;;;;;;;45.50;8.98;;;8.40;99.90;;;;;;2082260;28;20112;-62
2021/04/05 02:11:29;;;;;;;38.63;8.07;;;8.40;99.90;;;;;;2081728;28;20025;-62
2021/04/05 02:12:30;;;;;;;39.03;8.00;;;8.30;99.90;;;;;;2078656;28;20079;-62
2021/04/05 02:13:31;;;;;;;39.45;8.20;;;8.40;99.90;;;;;;2087039;28;20075;-62
2021/04/05 02:14:33;;;;;;;42.13;8.73;;;8.40;99.90;;;;;;2086559;28;20028;-62
2021/04/05 02:15:34;;;;;;;38.45;8.98;;;8.40;99.90;;;;;;2086219;28;20412;-62
2021/04/05 02:16:36;;;;;;;42.10;9.60;;;8.40;99.90;;;;;;2082713;28;20451;-62
2021/04/05 02:17:38;;;;;;;40.75;8.32;;;8.50;99.90;;;;;;2078639;28;20097;-62
2021/04/05 02:18:38;;;;;;;45.90;8.65;;;8.50;99.90;;;;;;2086107;28;20029;-62
2021/04/05 02:19:39;;;;;;;34.60;8.85;;;8.50;99.90;;;;;;2086899;28;20142;-62
2021/04/05 02:20:40;;;;;;;40.33;9.57;;;8.50;99.90;;;;;;2102115;28;20044;-62
2021/04/05 02:21:47;;;;;;;53.47;9.98;;;8.50;99.90;;;;;;2100874;28;20055;-62
2021/04/05 02:22:51;;;;;;;48.75;8.77;;;8.60;99.90;;;;;;2095127;28;20027;-62
2021/04/05 02:23:53;;;;;;;55.33;9.65;;;8.50;99.90;;;;;;2088518;28;20025;-62
2021/04/05 02:24:54;;;;;;;47.05;8.90;;;8.60;99.90;;;;;;2086310;28;20032;-63
2021/04/05 02:26:07;;;;;;;45.22;8.60;;;8.60;99.90;;;;;;2086185;28;20650;-64
2021/04/05 02:27:09;;;;;;;35.10;8.63;;;8.60;99.90;;;;;;2080116;28;20099;-62
2021/04/05 02:28:10;;;;;;;35.53;8.85;;;8.60;99.90;;;;;;2085874;28;20013;-62
2021/04/05 02:29:11;;;;;;;39.17;8.23;;;8.70;99.90;;;;;;2086000;28;20021;-62
2021/04/05 02:30:23;;;;;;;44.33;8.32;;;8.70;99.90;;;;;;2084720;28;20925;-62
2021/04/05 02:31:24;;;;;;;49.70;9.30;;;8.70;99.90;;;;;;2083048;28;20051;-62
2021/04/05 02:32:25;;;;;;;42.95;8.90;;;8.70;99.90;;;;;;2081914;28;20056;-62
2021/04/05 02:33:26;;;;;;;38.00;8.90;;;8.70;99.90;;;;;;2079263;28;20029;-62
2021/04/05 02:34:27;;;;;;;43.42;8.77;;;8.70;99.90;;;;;;2086533;28;20021;-62
2021/04/05 02:35:31;;;;;;;42.65;8.90;;;8.70;99.90;;;;;;2086150;28;20408;-62
2021/04/05 02:36:33;;;;;;;33.53;9.70;;;8.70;99.90;;;;;;2082434;28;20504;-62
2021/04/05 02:37:36;;;;;;;56.15;9.82;;;8.70;99.90;;;;;;2082974;28;20547;-62
2021/04/05 02:38:38;;;;;;;40.40;9.10;;;8.70;99.90;;;;;;2081777;28;20024;-62
2021/04/05 02:39:38;;;;;;;;;;;8.70;99.90;;;;;;2086724;28;20017;-62
2021/04/05 02:40:41;;;;;;;41.40;9.32;;;8.70;99.90;;;;;;2082028;28;20552;-62
2021/04/05 02:41:45;;;;;;;50.40;9.27;;;8.70;99.90;;;;;;2078386;28;20024;-62
2021/04/05 02:42:47;;;;;;;37.95;8.50;;;8.70;99.90;;;;;;2093417;28;20579;-62
2021/04/05 02:43:48;;;;;;;;;;;8.60;99.90;;;;;;2090623;28;20019;-63
2021/04/05 02:44:49;;;;;;;43.00;9.85;;;8.60;99.90;;;;;;2077942;28;20440;-62
2021/04/05 02:45:50;;;;;;;38.08;9.77;;;8.60;99.90;;;;;;2078273;28;20445;-62
2021/04/05 02:46:51;;;;;;;46.25;9.63;;;8.60;99.90;;;;;;2078259;28;20113;-62
2021/04/05 02:47:55;;;;;;;46.47;9.35;;;8.60;99.90;;;;;;2079869;28;20018;-62
2021/04/05 02:48:59;;;;;;;47.97;11.43;;;8.50;99.90;;;;;;2080168;28;20040;-62
2021/04/05 02:50:03;;;;;;;42.70;10.48;;;8.60;99.90;;;;;;2094250;28;20029;-62
2021/04/05 02:51:06;;;;;;;55.00;10.98;;;8.60;99.90;;;;;;2085548;28;20490;-62
2021/04/05 02:52:08;;;;;;;47.10;9.30;;;8.60;99.90;;;;;;2080647;28;20093;-62
2021/04/05 02:53:09;;;;;;;49.60;10.30;;;8.60;99.90;;;;;;2080793;28;20123;-62
2021/04/05 02:54:11;;;;;;;44.37;9.53;;;8.60;99.90;;;;;;2084639;28;20114;-62
2021/04/05 02:55:13;;;;;;;35.72;9.60;;;8.60;99.90;;;;;;2094808;28;20258;-61
2021/04/05 02:56:15;;;;;;;44.47;9.75;;;8.60;99.90;;;;;;2094484;28;20527;-63
2021/04/05 02:57:16;;;;;;;54.35;10.48;;;8.60;99.90;;;;;;2093350;28;20536;-63
2021/04/05 02:58:17;;;;;;;56.55;10.77;;;8.60;99.90;;;;;;2086015;28;20112;-62
2021/04/05 02:59:20;;;;;;;44.40;10.10;;;8.60;99.90;;;;;;2082468;28;20534;-62
2021/04/05 03:00:22;;;;;;;50.45;10.65;;;8.60;99.90;;;;;;2078224;28;20025;-62
2021/04/05 03:01:25;;;;;;;51.25;10.20;;;8.60;99.90;;;;;;2084736;28;20130;-62
2021/04/05 03:02:26;;;;;;;54.42;12.68;;;8.60;99.90;;;;;;2083777;28;20029;-63
2021/04/05 03:03:27;;;;;;;50.47;10.60;;;8.60;99.90;;;;;;2077961;28;20053;-62
2021/04/05 03:04:30;;;;;;;67.45;11.52;;;8.50;99.90;;;;;;2081764;28;20120;-62
2021/04/05 03:05:33;;;;;;;46.97;11.48;;;8.50;99.90;;;;;;2083544;28;20013;-62
2021/04/05 03:06:34;;;;;;;49.70;11.23;;;8.50;99.90;;;;;;2089247;28;20021;-62
2021/04/05 03:07:36;;;;;;;45.38;11.05;;;8.60;99.90;;;;;;2086146;28;20075;-62
2021/04/05 03:08:36;;;;;;;48.75;11.35;;;8.60;99.90;;;;;;2084676;28;20013;-62
2021/04/05 03:09:38;;;;;;;46.22;11.02;;;8.60;99.90;;;;;;2082945;28;20092;-62
2021/04/05 03:10:39;;;;;;;57.83;10.93;;;8.60;99.90;;;;;;2086459;28;20094;-62
2021/04/05 03:11:43;;;;;;;70.68;13.10;;;8.70;99.90;;;;;;2086093;28;20643;-62
2021/04/05 03:12:47;;;;;;;43.63;11.60;;;8.70;99.90;;;;;;2086079;28;20039;-62
2021/04/05 03:13:48;;;;;;;49.55;12.82;;;8.60;99.90;;;;;;2085112;28;20032;-62
2021/04/05 03:14:51;;;;;;;59.13;12.20;;;8.60;99.90;;;;;;2081319;28;20034;-62
2021/04/05 03:15:55;;;;;;;44.35;12.15;;;8.60;99.90;;;;;;2078336;28;20030;-62
2021/04/05 03:16:57;;;;;;;43.70;11.25;;;8.60;99.90;;;;;;2083109;28;20028;-62
2021/04/05 03:18:01;;;;;;;47.65;12.98;;;8.60;99.90;;;;;;2085775;28;20033;-62
2021/04/05 03:19:03;;;;;;;49.58;11.90;;;8.60;99.90;;;;;;2077729;28;20559;-63
2021/04/05 03:20:28;;;;;;;53.97;12.90;;;8.60;99.90;;;;;;2080835;28;20029;-62
2021/04/05 03:21:31;;;;;;;62.72;13.07;;;8.60;99.90;;;;;;2079107;28;20029;-62
2021/04/05 03:22:32;;;;;;;56.30;12.50;;;8.60;99.90;;;;;;2102314;28;20027;-63
2021/04/05 03:23:34;;;;;;;40.13;11.45;;;8.60;99.90;;;;;;2093497;28;20044;-62
2021/04/05 03:24:36;;;;;;;47.78;14.32;;;8.60;99.90;;;;;;2078353;28;20029;-62
2021/04/05 03:25:36;;;;;;;46.65;11.85;;;8.60;99.90;;;;;;2086878;28;20041;-62
2021/04/05 03:26:37;;;;;;;45.33;12.57;;;8.60;99.90;;;;;;2078332;28;20418;-62
2021/04/05 03:27:38;;;;;;;48.75;13.48;;;8.60;99.90;;;;;;2085771;28;20010;-62
2021/04/05 03:28:39;;;;;;;55.50;13.35;;;8.60;99.90;;;;;;2086416;28;20017;-62
2021/04/05 03:29:42;;;;;;;48.50;12.80;;;8.60;99.90;;;;;;2079177;28;20814;-62
2021/04/05 03:30:54;;;;;;;46.45;11.80;;;8.60;99.90;;;;;;2084769;28;20351;-62
2021/04/05 03:31:57;;;;;;;43.67;12.15;;;8.70;99.90;;;;;;2086527;28;20036;-62
2021/04/05 03:33:16;;;;;;;;;;;8.70;99.90;;;;;;2086983;28;20075;-62
2021/04/05 03:34:22;;;;;;;45.85;12.68;;;8.70;99.90;;;;;;2094851;28;19905;-62
2021/04/05 03:35:29;;;;;;;42.13;10.30;;;8.70;99.90;;;;;;2092444;28;20017;-62
2021/04/05 03:36:48;;;;;;;45.00;11.38;;;8.60;99.90;;;;;;2086974;28;20024;-62
2021/04/05 03:37:49;;;;;;;40.20;10.93;;;8.60;99.90;;;;;;2083962;28;20107;-62
2021/04/05 03:38:50;;;;;;;43.85;12.02;;;8.70;99.90;;;;;;2086340;28;20033;-62
2021/04/05 03:39:51;;;;;;;55.20;13.45;;;8.60;99.90;;;;;;2080385;28;20022;-62
2021/04/05 03:40:56;;;;;;;49.95;11.63;;;8.60;99.90;;;;;;2084385;28;20025;-62
2021/04/05 03:42:01;;;;;;;55.20;12.20;;;8.60;99.90;;;;;;2092485;28;20031;-62
2021/04/05 03:43:07;;;;;;;40.65;13.05;;;8.70;99.90;;;;;;2086074;28;20041;-62
2021/04/05 03:44:25;;;;;;;42.25;12.05;;;8.70;99.90;;;;;;2083003;28;20021;-62
2021/04/05 03:45:37;;;;;;;47.67;11.95;;;8.70;99.90;;;;;;2086384;28;20021;-61
2021/04/05 03:46:44;;;;;;;49.30;12.43;;;8.70;99.90;;;;;;2078479;28;20018;-62
2021/04/05 03:48:00;;;;;;;40.60;12.75;;;8.70;99.90;;;;;;2085228;28;20248;-62
2021/04/05 03:49:30;;;;;;;44.03;12.18;;;8.70;99.90;;;;;;2088933;28;20055;-64
2021/04/05 03:50:42;;;;;;;43.08;13.93;;;8.60;99.90;;;;;;2080200;28;20083;-62
2021/04/05 03:51:49;;;;;;;51.53;14.30;;;8.60;99.90;;;;;;2082417;28;20021;-61
2021/04/05 03:52:57;;;;;;;54.25;14.75;;;8.60;99.90;;;;;;2088156;28;20092;-61
2021/04/05 03:54:12;;;;;;;59.45;14.52;;;8.60;99.90;;;;;;2088244;28;20047;-61
2021/04/05 03:55:15;;;;;;;53.08;13.35;;;8.60;99.90;;;;;;2095854;28;20436;-61
2021/04/05 03:56:16;;;;;;;;;;;8.60;99.90;;;;;;2087949;28;20017;-61
2021/04/05 03:57:22;;;;;;;46.95;12.93;;;8.60;99.90;;;;;;2087691;28;19911;-63
2021/04/05 03:58:28;;;;;;;50.80;14.15;;;8.50;99.90;;;;;;2080639;28;20024;-62
2021/04/05 03:59:33;;;;;;;51.53;11.57;;;8.50;99.90;;;;;;2085129;28;20455;-61
2021/04/05 04:00:35;;;;;;;54.63;14.23;;;8.50;99.90;;;;;;2080916;28;20039;-62
2021/04/05 04:01:46;;;;;;;38.83;12.13;;;8.40;99.90;;;;;;2086931;28;20021;-62
2021/04/05 04:02:54;;;;;;;44.67;13.10;;;8.30;99.90;;;;;;2088284;28;20028;-62
2021/04/05 04:04:11;;;;;;;53.53;13.30;;;8.30;99.90;;;;;;2089485;28;20021;-61
2021/04/05 04:05:27;;;;;;;45.38;12.73;;;8.30;99.90;;;;;;2085829;28;20017;-62
2021/04/05 04:06:36;;;;;;;48.42;11.85;;;8.20;99.90;;;;;;2087504;28;20473;-62
2021/04/05 04:08:44;;;;;;;54.00;12.43;;;8.10;99.90;;;;;;2088523;28;20025;-62
2021/04/05 04:09:46;;;;;;;47.42;12.23;;;8.10;99.90;;;;;;2084202;28;20036;-62
2021/04/05 04:10:52;;;;;;;46.83;13.38;;;8.10;99.90;;;;;;2080042;28;20009;-62
2021/04/05 04:11:56;;;;;;;46.38;12.02;;;8.10;99.90;;;;;;2088623;28;20037;-61
2021/04/05 04:12:59;;;;;;;44.78;11.70;;;8.10;99.90;;;;;;2083967;28;20021;-62
2021/04/05 04:14:03;;;;;;;51.85;13.48;;;8.10;99.90;;;;;;2085443;28;20029;-61
2021/04/05 04:15:06;;;;;;;56.75;13.07;;;8.10;99.90;;;;;;2080536;28;20022;-61
2021/04/05 04:16:09;;;;;;;50.40;12.13;;;8.20;99.90;;;;;;2079570;28;20079;-61
2021/04/05 04:17:11;;;;;;;59.67;12.23;;;8.20;99.90;;;;;;2086174;28;20023;-61
2021/04/05 04:18:14;;;;;;;;;;;8.30;99.90;;;;;;2088465;28;20052;-61
2021/04/05 04:19:17;;;;;;;50.78;10.63;;;8.30;99.90;;;;;;2088471;28;19905;-61
2021/04/05 04:20:18;;;;;;;37.25;11.18;;;8.30;99.90;;;;;;2082057;28;20598;-61
2021/04/05 04:21:20;;;;;;;57.72;12.40;;;8.30;99.90;;;;;;2096536;28;20040;-61
2021/04/05 04:22:22;;;;;;;52.08;12.43;;;8.30;99.90;;;;;;2083008;28;20033;-61
2021/04/05 04:23:23;;;;;;;41.83;12.15;;;8.30;99.90;;;;;;2083916;28;20104;-61
2021/04/05 04:24:26;;;;;;;48.33;10.98;;;8.30;99.90;;;;;;2089048;28;20021;-62
2021/04/05 04:25:27;;;;;;;53.05;12.38;;;8.30;99.90;;;;;;2084886;28;20025;-61
2021/04/05 04:26:34;;;;;;;47.42;12.43;;;8.30;99.90;;;;;;2097886;28;20116;-62
2021/04/05 04:27:36;;;;;;;50.58;12.55;;;8.30;99.90;;;;;;2089127;28;20168;-57
2021/04/05 04:28:43;;;;;;;50.22;12.38;;;8.30;99.90;;;;;;2086399;28;20008;-61
2021/04/05 04:29:52;;;;;;;39.15;11.98;;;8.40;99.90;;;;;;2088140;28;20024;-61
2021/04/05 04:30:57;;;;;;;44.75;11.63;;;8.40;99.90;;;;;;2088266;28;20025;-62
2021/04/05 04:31:58;;;;;;;57.40;12.13;;;8.40;99.90;;;;;;2090645;28;20060;-62
2021/04/05 04:33:05;;;;;;;51.28;10.65;;;8.40;99.90;;;;;;2087301;28;20032;-62
2021/04/05 04:34:06;;;;;;;54.55;11.23;;;8.40;99.90;;;;;;2088657;28;20025;-61
2021/04/05 04:35:10;;;;;;;42.60;10.38;;;8.40;99.90;;;;;;2081714;28;20563;-62
2021/04/05 04:36:11;;;;;;;48.58;11.68;;;8.40;99.90;;;;;;2088036;28;20028;-62
2021/04/05 04:37:12;;;;;;;44.40;10.15;;;8.40;99.90;;;;;;2087607;28;20682;-62
2021/04/05 04:38:13;;;;;;;45.17;10.57;;;8.40;99.90;;;;;;2088201;28;20029;-62
2021/04/05 04:39:15;;;;;;;38.25;10.30;;;8.40;99.90;;;;;;2096232;28;20025;-62
2021/04/05 04:40:20;;;;;;;;;;;8.40;99.90;;;;;;2096346;28;20108;-61
2021/04/05 04:41:22;;;;;;;36.45;10.45;;;8.50;99.90;;;;;;2087174;28;19915;-61
2021/04/05 04:42:24;;;;;;;39.92;9.27;;;8.50;99.90;;;;;;2081096;28;20031;-61
2021/04/05 04:43:24;;;;;;;39.22;9.70;;;8.50;99.90;;;;;;2079299;28;20030;-62
2021/04/05 04:44:25;;;;;;;41.38;10.05;;;8.50;99.90;;;;;;2081741;28;20013;-61
2021/04/05 04:45:26;;;;;;;45.33;9.57;;;8.60;99.90;;;;;;2080705;28;20022;-62
2021/04/05 04:46:28;;;;;;;38.58;8.88;;;8.60;99.90;;;;;;2088020;28;20060;-63
2021/04/05 04:47:29;;;;;;;38.95;10.30;;;8.60;99.90;;;;;;2087608;28;20110;-62
2021/04/05 04:48:29;;;;;;;32.60;9.40;;;8.60;99.90;;;;;;2080373;28;20048;-61
2021/04/05 04:49:30;;;;;;;34.53;9.38;;;8.60;99.90;;;;;;2080344;28;20094;-62
2021/04/05 04:50:31;;;;;;;33.60;9.13;;;8.60;99.90;;;;;;2081144;28;20021;-61
2021/04/05 04:51:33;;;;;;;38.72;10.68;;;8.60;99.90;;;;;;2088118;28;20397;-62
2021/04/05 04:52:33;;;;;;;48.38;11.13;;;8.60;99.90;;;;;;2087528;28;20052;-61
2021/04/05 04:53:34;;;;;;;44.97;11.27;;;8.60;99.90;;;;;;2088011;28;20025;-62
2021/04/05 04:54:35;;;;;;;39.42;11.95;;;8.60;99.90;;;;;;2087662;28;20043;-61
2021/04/05 04:55:38;;;;;;;34.63;10.65;;;8.60;99.90;;;;;;2087801;28;20032;-62
2021/04/05 04:56:39;;;;;;;34.28;10.38;;;8.60;99.90;;;;;;2087197;28;20682;-62
2021/04/05 04:57:40;;;;;;;33.47;10.25;;;8.60;99.90;;;;;;2087651;28;20099;-62
2021/04/05 04:58:41;;;;;;;34.97;10.00;;;8.60;99.90;;;;;;2079894;28;20028;-61
2021/04/05 04:59:41;;;;;;;42.22;11.23;;;8.60;99.90;;;;;;2087047;28;20021;-62
2021/04/05 05:00:42;;;;;;;35.90;9.95;;;8.60;99.90;;;;;;2088316;28;20092;-62
2021/04/05 05:01:47;;;;;;;37.00;9.73;;;8.60;99.90;;;;;;2088176;28;20033;-62
2021/04/05 05:02:48;;;;;;;32.00;9.25;;;8.60;99.90;;;;;;2087845;28;20009;-61
2021/04/05 05:03:55;;;;;;;36.53;9.90;;;8.70;99.90;;;;;;2088131;28;20023;-62
2021/04/05 05:04:57;;;;;;;37.03;9.23;;;8.70;99.90;;;;;;2085249;28;20029;-62
2021/04/05 05:05:59;;;;;;;34.95;8.85;;;8.70;99.90;;;;;;2083181;28;20053;-62
2021/04/05 05:07:01;;;;;;;41.38;9.68;;;8.70;99.90;;;;;;2079589;28;20021;-61
2021/04/05 05:08:03;;;;;;;36.30;9.70;;;8.70;99.90;;;;;;2098552;28;20016;-62
2021/04/05 05:09:04;;;;;;;37.08;8.63;;;8.70;99.90;;;;;;2102736;28;20024;-62
2021/04/05 05:10:09;;;;;;;30.50;9.05;;;8.70;99.90;;;;;;2087034;28;20073;-62
2021/04/05 05:11:10;;;;;;;29.17;9.40;;;8.80;99.90;;;;;;2082674;28;20033;-62
2021/04/05 05:12:12;;;;;;;34.60;9.70;;;8.70;99.90;;;;;;2087916;28;20017;-62
2021/04/05 05:13:14;;;;;;;36.67;10.20;;;8.70;99.90;;;;;;2089615;28;20108;-61
2021/04/05 05:14:16;;;;;;;38.75;11.30;;;8.70;99.90;;;;;;2079522;28;20067;-62
2021/04/05 05:15:16;;;;;;;38.03;10.70;;;8.70;99.90;;;;;;2079219;28;20031;-61
2021/04/05 05:16:18;;;;;;;45.25;11.65;;;8.70;99.90;;;;;;2082866;28;20047;-61
2021/04/05 05:17:19;;;;;;;37.17;10.60;;;8.70;99.90;;;;;;2086128;28;20124;-62
2021/04/05 05:18:20;;;;;;;45.80;12.40;;;8.70;99.90;;;;;;2089206;28;20025;-61
2021/04/05 05:19:21;;;;;;;35.20;11.97;;;8.70;99.90;;;;;;2091537;28;20087;-62
2021/04/05 05:20:21;;;;;;;37.10;11.05;;;8.70;99.90;;;;;;2084389;28;20260;-61
2021/04/05 05:21:32;;;;;;;39.08;10.95;;;8.70;99.90;;;;;;2094142;28;20059;-62
2021/04/05 05:22:40;;;;;;;44.85;12.10;;;8.70;99.90;;;;;;2078699;28;20017;-61
2021/04/05 05:23:42;;;;;;;46.15;11.60;;;8.80;99.90;;;;;;2082203;28;20608;-62
2021/04/05 05:24:44;;;;;;;50.15;12.13;;;8.80;99.90;;;;;;2079429;28;20025;-61
2021/04/05 05:25:46;;;;;;;45.22;12.50;;;8.80;99.90;;;;;;2086839;28;20094;-62
2021/04/05 05:26:49;;;;;;;41.75;12.13;;;8.80;99.90;;;;;;2089435;28;20013;-62
2021/04/05 05:27:58;;;;;;;37.80;12.00;;;8.80;99.90;;;;;;2094905;28;20106;-62
2021/04/05 05:29:07;;;;;;;40.50;12.52;;;8.80;99.90;;;;;;2080623;28;20113;-61
2021/04/05 05:30:08;;;;;;;46.25;13.85;;;8.80;99.90;;;;;;2088363;28;20029;-64